This is the latest recevied weather packets stored in our database for station/object IZ2MHJ-3. If no packets are shown the sender has not sent any weather packets the latest 10 day(s).
| Time | Temp. | Humidity | Pressure | Rain* | Wind** | Luminosity | Snow |
|---|---|---|---|---|---|---|---|
| 1787646643 | 21.11° C | 78% | 1012.4 hPa | - | - | - | - |
| 1787645443 | 21.67° C | 79% | 1012.4 hPa | - | - | - | - |
| 1787644243 | 21.11° C | 79% | 1012.3 hPa | - | - | - | - |
| 1787643043 | 21.11° C | 82% | 1012.3 hPa | - | - | - | - |
| 1787641842 | 21.67° C | 81% | 1012.2 hPa | - | - | - | - |
| 1787640642 | 21.11° C | 83% | 1012.1 hPa | - | - | - | - |
| 1787639442 | 21.11° C | 84% | 1012 hPa | - | - | - | - |
| 1787638241 | 21.11° C | 81% | 1011.8 hPa | - | - | - | - |
| 1787637041 | 20.56° C | 84% | 1011.6 hPa | - | - | - | - |
| 1787635841 | 21.11° C | 83% | 1011.5 hPa | - | - | - | - |
| 1787634640 | 21.11° C | 83% | 1011.5 hPa | - | - | - | - |
| 1787633440 | 20° C | 88% | 1011.6 hPa | - | - | - | - |
| 1787632240 | 20° C | 90% | 1011.5 hPa | - | - | - | - |
| 1787631039 | 20° C | 92% | 1011.6 hPa | - | - | - | - |
| 1787629839 | 20.56° C | 88% | 1011.6 hPa | - | - | - | - |
| 1787628639 | 20° C | 90% | 1011.7 hPa | - | - | - | - |
| 1787627438 | 20.56° C | 85% | 1011.8 hPa | - | - | - | - |
| 1787626238 | 20.56° C | 86% | 1012.2 hPa | - | - | - | - |
| 1787625038 | 20.56° C | 79% | 1012.6 hPa | - | - | - | - |
| 1787623838 | 20.56° C | 80% | 1012.8 hPa | - | - | - | - |
| 1787622637 | 21.11° C | 75% | 1013.1 hPa | - | - | - | - |
| 1787621437 | 21.67° C | 76% | 1013.1 hPa | - | - | - | - |
| 1787620237 | 22.22° C | 72% | 1013 hPa | - | - | - | - |
| 1787619036 | 22.78° C | 68% | 1013.2 hPa | - | - | - | - |
| 1787617836 | 23.33° C | 66% | 1013.3 hPa | - | - | - | - |
* Rain since midnight (hover to see other rain measurements)
** Current wind speed in m/s (hover to see current wind gust speed)